Time;durP1;ratioP1;P1;durP2;ratioP2;P2;SDS_P1;SDS_P2;PMS_P1;PMS_P2;Temp;Humidity;BMP_temperature;BMP_pressure;BME280_temperature;BME280_humidity;BME280_pressure;Samples;Min_cycle;Max_cycle;Signal;HPM_P1;HPM_P2
2021/12/04 00:00:22;;;;;;;;;;;20.50;55.60;;;;;;5013222;28;1398;-70
2021/12/04 00:02:48;;;;;;;;;;;20.50;55.60;;;;;;5012774;28;1131;-71
2021/12/04 00:05:13;;;;;;;;;;;20.50;55.60;;;;;;5012959;28;1204;-70
2021/12/04 00:07:39;;;;;;;;;;;20.50;55.70;;;;;;5011776;28;1284;-70
2021/12/04 00:10:05;;;;;;;;;;;20.50;55.70;;;;;;5013421;28;1251;-69
2021/12/04 00:12:31;;;;;;;;;;;20.50;55.70;;;;;;5011110;28;1915;-70
2021/12/04 00:14:57;;;;;;;;;;;20.50;55.80;;;;;;5011765;28;1281;-70
2021/12/04 00:17:22;;;;;;;;;;;20.50;55.80;;;;;;5012784;28;1065;-70
2021/12/04 00:19:48;;;;;;;;;;;20.50;55.80;;;;;;5012779;28;1287;-71
2021/12/04 00:22:13;;;;;;;;;;;20.50;55.80;;;;;;5000572;28;1143;-70
2021/12/04 00:24:39;;;;;;;;;;;20.50;55.80;;;;;;5012870;28;1234;-70
2021/12/04 00:27:04;;;;;;;;;;;20.50;55.80;;;;;;5012414;28;1339;-70
2021/12/04 00:29:30;;;;;;;;;;;20.40;55.80;;;;;;5013025;28;1124;-70
2021/12/04 00:32:01;;;;;;;;;;;20.50;55.90;;;;;;5011586;28;1898;-70
2021/12/04 00:34:28;;;;;;;;;;;20.50;55.90;;;;;;5012556;28;1068;-69
2021/12/04 00:50:35;;;;;;;;;;;20.40;55.90;;;;;;5016229;28;1287;-71
2021/12/04 00:53:00;;;;;;;;;;;20.40;55.90;;;;;;5015928;28;1906;-71
2021/12/04 00:55:26;;;;;;;;;;;20.40;56.00;;;;;;5014815;28;1086;-71
2021/12/04 00:57:52;;;;;;;;;;;20.40;56.00;;;;;;5015942;28;1278;-71
2021/12/04 01:00:18;;;;;;;;;;;20.40;56.00;;;;;;5015892;28;1260;-71
2021/12/04 01:02:43;;;;;;;;;;;20.40;56.10;;;;;;5015549;28;1125;-70
2021/12/04 01:05:09;;;;;;;;;;;20.40;56.10;;;;;;5015898;28;1081;-71
2021/12/04 01:07:34;;;;;;;;;;;20.40;56.10;;;;;;5015885;28;1264;-71
2021/12/04 01:10:00;;;;;;;;;;;20.40;56.10;;;;;;5014611;28;1363;-70
2021/12/04 01:12:25;;;;;;;;;;;20.40;56.10;;;;;;5014471;28;1906;-71
2021/12/04 01:14:51;;;;;;;;;;;20.40;56.10;;;;;;5015642;28;1068;-72
2021/12/04 01:17:16;;;;;;;;;;;20.30;56.10;;;;;;5015547;28;1297;-71
2021/12/04 01:19:42;;;;;;;;;;;20.40;56.20;;;;;;5015840;28;1224;-71
2021/12/04 01:22:07;;;;;;;;;;;20.40;56.20;;;;;;5015095;28;1128;-71
2021/12/04 01:24:32;;;;;;;;;;;20.40;56.20;;;;;;5015679;28;1130;-71
2021/12/04 01:26:58;;;;;;;;;;;20.40;56.20;;;;;;5015338;28;1112;-71
2021/12/04 01:29:23;;;;;;;;;;;20.40;56.20;;;;;;5016010;28;1072;-71
2021/12/04 01:31:49;;;;;;;;;;;20.30;56.20;;;;;;5014727;28;1965;-71
2021/12/04 01:34:14;;;;;;;;;;;20.40;56.30;;;;;;5014163;28;1373;-71
2021/12/04 01:36:40;;;;;;;;;;;20.40;56.30;;;;;;5014065;28;1187;-71
2021/12/04 01:39:05;;;;;;;;;;;20.40;56.30;;;;;;5015406;28;1143;-71
2021/12/04 01:41:32;;;;;;;;;;;20.40;56.30;;;;;;5013745;28;1346;-71
2021/12/04 01:43:58;;;;;;;;;;;20.30;56.30;;;;;;5013994;28;1348;-71
2021/12/04 01:46:24;;;;;;;;;;;20.30;56.90;;;;;;5014454;28;1120;-71
2021/12/04 01:48:49;;;;;;;;;;;20.30;56.30;;;;;;5013839;28;1069;-70
2021/12/04 01:51:15;;;;;;;;;;;20.30;56.30;;;;;;5014611;28;1267;-71
2021/12/04 01:53:40;;;;;;;;;;;20.30;56.30;;;;;;5014871;28;1914;-70
2021/12/04 01:56:05;;;;;;;;;;;20.30;56.30;;;;;;5014773;28;1120;-70
2021/12/04 01:58:31;;;;;;;;;;;20.30;56.40;;;;;;5014832;28;1072;-70
2021/12/04 02:00:56;;;;;;;;;;;20.30;56.40;;;;;;5013262;28;1350;-70
2021/12/04 02:03:22;;;;;;;;;;;20.30;56.40;;;;;;5014790;28;1100;-70
2021/12/04 02:05:48;;;;;;;;;;;20.30;56.40;;;;;;5014764;28;1131;-71
2021/12/04 02:08:20;;;;;;;;;;;20.30;56.40;;;;;;5014678;28;1116;-71
2021/12/04 02:10:46;;;;;;;;;;;20.30;56.40;;;;;;5014353;28;1217;-70
2021/12/04 02:13:11;;;;;;;;;;;20.30;56.40;;;;;;5014799;28;1910;-71
2021/12/04 02:15:37;;;;;;;;;;;20.30;56.40;;;;;;5009222;28;1076;-70
2021/12/04 02:18:05;;;;;;;;;;;20.30;56.50;;;;;;5006967;28;1042;-71
2021/12/04 02:20:32;;;;;;;;;;;20.30;56.50;;;;;;5014312;28;1389;-71
2021/12/04 02:22:58;;;;;;;;;;;20.30;56.50;;;;;;5012951;28;1073;-70
2021/12/04 02:25:23;;;;;;;;;;;20.30;56.50;;;;;;5014376;28;1338;-71
2021/12/04 02:27:49;;;;;;;;;;;20.30;56.50;;;;;;5014263;28;1190;-71
2021/12/04 02:30:15;;;;;;;;;;;20.30;56.50;;;;;;4999507;28;1260;-71
2021/12/04 02:32:41;;;;;;;;;;;20.30;56.50;;;;;;5014020;28;1982;-71
2021/12/04 02:35:07;;;;;;;;;;;20.30;56.50;;;;;;5001062;28;1128;-71
2021/12/04 02:37:33;;;;;;;;;;;20.30;56.50;;;;;;5014515;28;1080;-71
2021/12/04 02:39:59;;;;;;;;;;;20.30;56.40;;;;;;5014099;28;1375;-70
2021/12/04 02:42:27;;;;;;;;;;;20.30;56.50;;;;;;5013492;28;1174;-70
2021/12/04 02:44:53;;;;;;;;;;;20.30;56.40;;;;;;5012918;28;1190;-70
2021/12/04 02:47:18;;;;;;;;;;;20.30;56.40;;;;;;5013946;28;1068;-70
2021/12/04 02:49:44;;;;;;;;;;;20.30;56.40;;;;;;5012743;28;1381;-70
2021/12/04 02:52:09;;;;;;;;;;;20.30;56.40;;;;;;5012310;28;1906;-70
2021/12/04 02:54:35;;;;;;;;;;;20.30;56.40;;;;;;5013788;28;1256;-70
2021/12/04 02:57:01;;;;;;;;;;;20.30;56.40;;;;;;5013766;28;1080;-70
2021/12/04 02:59:26;;;;;;;;;;;20.30;56.30;;;;;;5012904;28;1506;-70
2021/12/04 03:01:56;;;;;;;;;;;20.30;56.40;;;;;;5012015;28;1280;-70
2021/12/04 03:04:23;;;;;;;;;;;20.30;56.30;;;;;;5001090;28;1167;-70
2021/12/04 03:06:49;;;;;;;;;;;20.30;56.30;;;;;;5013795;28;1319;-70
2021/12/04 03:09:14;;;;;;;;;;;20.30;56.40;;;;;;5012474;28;1081;-70
2021/12/04 03:11:40;;;;;;;;;;;20.30;56.40;;;;;;5012853;28;1218;-71
2021/12/04 03:14:05;;;;;;;;;;;20.30;56.40;;;;;;5013499;28;1906;-70
2021/12/04 03:16:31;;;;;;;;;;;20.30;57.00;;;;;;5012254;28;1092;-70
2021/12/04 03:18:57;;;;;;;;;;;20.40;56.40;;;;;;5013472;28;1285;-70
2021/12/04 03:21:22;;;;;;;;;;;20.30;56.40;;;;;;5011920;28;1310;-70
2021/12/04 03:23:53;;;;;;;;;;;20.30;56.40;;;;;;5012118;28;1262;-70
2021/12/04 03:26:19;;;;;;;;;;;20.30;56.40;;;;;;5013148;28;1257;-71
2021/12/04 03:28:44;;;;;;;;;;;20.30;56.40;;;;;;5006537;28;1079;-71
2021/12/04 03:31:22;;;;;;;;;;;20.30;56.40;;;;;;5006466;28;1280;-70
2021/12/04 03:42:00;;;;;;;;;;;20.30;56.50;;;;;;5012875;28;1170;-70
2021/12/04 03:44:26;;;;;;;;;;;20.30;56.50;;;;;;5013241;28;1331;-70
2021/12/04 03:46:51;;;;;;;;;;;20.30;56.60;;;;;;5011931;28;1279;-70
2021/12/04 03:49:17;;;;;;;;;;;20.30;56.50;;;;;;5013060;28;1298;-70
2021/12/04 03:51:42;;;;;;;;;;;20.30;56.60;;;;;;5012703;28;1381;-70
2021/12/04 03:54:08;;;;;;;;;;;20.30;56.60;;;;;;5013018;28;1902;-70
2021/12/04 03:56:35;;;;;;;;;;;20.30;56.60;;;;;;5011962;28;1459;-70
2021/12/04 03:59:01;;;;;;;;;;;20.30;56.60;;;;;;5013075;28;1252;-70
2021/12/04 04:01:26;;;;;;;;;;;20.30;56.60;;;;;;5012617;28;1211;-70
2021/12/04 04:03:52;;;;;;;;;;;20.30;56.60;;;;;;5010031;28;1084;-70
2021/12/04 04:06:17;;;;;;;;;;;20.30;56.60;;;;;;5002863;28;1288;-71
2021/12/04 04:08:43;;;;;;;;;;;20.30;56.60;;;;;;5012883;28;1005;-70
2021/12/04 04:11:08;;;;;;;;;;;20.30;56.60;;;;;;5015454;28;1284;-70
2021/12/04 04:13:34;;;;;;;;;;;20.30;56.70;;;;;;5016715;28;1942;-71
2021/12/04 04:16:00;;;;;;;;;;;20.20;56.60;;;;;;5015721;28;1288;-70
2021/12/04 04:18:27;;;;;;;;;;;20.20;56.60;;;;;;5016433;28;1303;-70
2021/12/04 04:20:53;;;;;;;;;;;20.30;56.70;;;;;;5008459;28;1213;-70
2021/12/04 04:23:18;;;;;;;;;;;20.20;56.60;;;;;;5013300;28;1333;-69
2021/12/04 04:25:44;;;;;;;;;;;20.20;56.60;;;;;;5016650;28;1119;-70
2021/12/04 04:28:09;;;;;;;;;;;20.20;56.60;;;;;;5016525;28;1120;-70
2021/12/04 04:30:36;;;;;;;;;;;20.20;56.60;;;;;;5016390;28;1374;-70
2021/12/04 04:33:03;;;;;;;;;;;20.30;56.70;;;;;;5014733;28;1918;-70
2021/12/04 04:35:28;;;;;;;;;;;20.30;56.70;;;;;;5005939;28;1073;-69
2021/12/04 04:38:03;;;;;;;;;;;20.30;56.70;;;;;;5012692;28;1131;-69
2021/12/04 05:15:22;;;;;;;;;;;20.20;56.80;;;;;;5016002;28;1194;-70
2021/12/04 05:20:19;;;;;;;;;;;20.30;56.80;;;;;;5015705;28;1269;-70
2021/12/04 05:22:44;;;;;;;;;;;20.40;56.70;;;;;;5013188;28;1128;-70
2021/12/04 05:25:10;;;;;;;;;;;20.40;56.60;;;;;;5015359;28;1080;-70
2021/12/04 05:27:35;;;;;;;;;;;20.40;56.50;;;;;;5015638;28;1060;-71
2021/12/04 05:30:00;;;;;;;;;;;20.50;56.40;;;;;;5015379;28;1411;-70
2021/12/04 05:32:26;;;;;;;;;;;20.60;56.20;;;;;;5015038;28;1944;-70
2021/12/04 05:34:51;;;;;;;;;;;20.60;56.10;;;;;;5015356;28;1365;-70
2021/12/04 05:37:17;;;;;;;;;;;20.60;56.00;;;;;;5015350;28;1167;-70
2021/12/04 05:39:42;;;;;;;;;;;20.70;55.90;;;;;;5014981;28;1311;-70
2021/12/04 05:42:08;;;;;;;;;;;20.70;55.70;;;;;;5014784;28;1174;-70
2021/12/04 05:44:34;;;;;;;;;;;20.80;55.70;;;;;;5015114;28;1140;-70
2021/12/04 05:47:09;;;;;;;;;;;20.80;55.60;;;;;;5013952;28;1326;-70
2021/12/04 05:49:50;;;;;;;;;;;20.80;55.60;;;;;;5013913;28;1732;-70
2021/12/04 05:57:06;;;;;;;;;;;20.90;55.40;;;;;;5014997;28;1116;-70
2021/12/04 05:59:31;;;;;;;;;;;20.90;55.30;;;;;;5014858;28;1357;-69
2021/12/04 06:01:57;;;;;;;;;;;20.90;55.20;;;;;;5013349;28;1297;-70
2021/12/04 06:04:22;;;;;;;;;;;20.90;55.20;;;;;;5014710;28;1308;-70
2021/12/04 06:06:48;;;;;;;;;;;20.90;55.10;;;;;;5014633;28;1362;-70
2021/12/04 06:09:13;;;;;;;;;;;20.90;55.10;;;;;;5014659;28;1350;-70
2021/12/04 06:11:39;;;;;;;;;;;21.00;55.20;;;;;;5014332;28;1190;-70
2021/12/04 06:14:04;;;;;;;;;;;21.00;55.20;;;;;;5014508;28;1962;-70
2021/12/04 06:16:30;;;;;;;;;;;21.00;55.10;;;;;;5013483;28;1073;-70
2021/12/04 06:18:57;;;;;;;;;;;21.00;55.00;;;;;;5001706;28;1055;-70
2021/12/04 06:24:07;;;;;;;;;;;21.00;55.00;;;;;;5003547;28;950;-70
2021/12/04 06:26:33;;;;;;;;;;;21.00;55.10;;;;;;5014691;28;1279;-70
2021/12/04 06:28:58;;;;;;;;;;;21.00;55.10;;;;;;5014376;28;1283;-70
2021/12/04 06:31:24;;;;;;;;;;;21.00;55.10;;;;;;5013051;28;1232;-71
2021/12/04 06:33:50;;;;;;;;;;;21.00;55.10;;;;;;5012645;28;1961;-71
2021/12/04 06:36:15;;;;;;;;;;;21.00;55.10;;;;;;5013826;28;1386;-71
2021/12/04 06:38:41;;;;;;;;;;;21.00;55.10;;;;;;5013336;28;1891;-69
2021/12/04 06:41:06;;;;;;;;;;;21.00;55.10;;;;;;5012551;28;1760;-68
2021/12/04 06:43:32;;;;;;;;;;;21.00;55.10;;;;;;5012675;28;963;-70
2021/12/04 06:45:59;;;;;;;;;;;21.00;55.10;;;;;;5013774;28;1402;-69
2021/12/04 06:48:31;;;;;;;;;;;21.00;55.20;;;;;;5013844;28;1276;-69
2021/12/04 06:51:05;;;;;;;;;;;21.00;55.20;;;;;;5010494;28;1768;-71
2021/12/04 06:53:38;;;;;;;;;;;21.00;55.20;;;;;;5010876;28;1953;-71
2021/12/04 06:56:06;;;;;;;;;;;21.00;55.20;;;;;;5012688;28;1148;-71
2021/12/04 06:58:31;;;;;;;;;;;21.00;55.20;;;;;;5013532;28;1275;-71
2021/12/04 07:00:57;;;;;;;;;;;21.00;55.20;;;;;;5013168;28;1339;-69
2021/12/04 07:03:22;;;;;;;;;;;21.00;55.20;;;;;;5012412;28;1357;-70
2021/12/04 07:05:48;;;;;;;;;;;20.90;53.20;;;;;;5013337;28;1431;-71
2021/12/04 07:08:13;;;;;;;;;;;20.90;52.90;;;;;;5012598;28;1362;-70
2021/12/04 07:10:39;;;;;;;;;;;20.90;51.40;;;;;;5012098;28;1564;-70
2021/12/04 07:13:04;;;;;;;;;;;20.90;51.00;;;;;;5013167;28;1894;-70
2021/12/04 07:15:31;;;;;;;;;;;20.90;51.10;;;;;;5012144;28;1325;-67
2021/12/04 07:17:57;;;;;;;;;;;20.90;51.20;;;;;;5013207;28;1065;-69
2021/12/04 07:20:23;;;;;;;;;;;20.90;51.40;;;;;;5012122;28;1358;-70
2021/12/04 07:22:48;;;;;;;;;;;20.90;51.70;;;;;;5002659;28;1279;-71
2021/12/04 07:25:14;;;;;;;;;;;20.90;51.80;;;;;;5012092;28;1349;-68
2021/12/04 07:27:39;;;;;;;;;;;20.90;52.10;;;;;;5013260;28;1286;-71
2021/12/04 07:30:06;;;;;;;;;;;20.90;52.30;;;;;;5011635;28;1361;-68
2021/12/04 07:32:31;;;;;;;;;;;20.90;52.50;;;;;;5012805;28;1914;-68
2021/12/04 07:34:57;;;;;;;;;;;20.90;52.60;;;;;;5013486;28;1336;-67
2021/12/04 07:37:22;;;;;;;;;;;20.90;53.40;;;;;;5013393;28;1281;-68
2021/12/04 07:39:48;;;;;;;;;;;20.80;52.80;;;;;;5013483;28;1285;-69
2021/12/04 07:42:13;;;;;;;;;;;20.80;52.90;;;;;;5012694;28;1245;-69
2021/12/04 07:44:39;;;;;;;;;;;20.80;53.00;;;;;;5012190;28;1268;-71
2021/12/04 07:47:04;;;;;;;;;;;20.80;53.10;;;;;;5012069;28;1360;-70
2021/12/04 07:49:29;;;;;;;;;;;20.90;53.50;;;;;;5013163;28;1391;-67
2021/12/04 07:51:55;;;;;;;;;;;20.90;53.50;;;;;;5013196;28;1296;-67
2021/12/04 07:54:20;;;;;;;;;;;21.00;53.60;;;;;;5012839;28;1965;-70
2021/12/04 07:56:46;;;;;;;;;;;21.10;53.60;;;;;;5012861;28;1064;-69
2021/12/04 07:59:11;;;;;;;;;;;21.10;53.50;;;;;;5012830;28;1094;-70
2021/12/04 08:01:37;;;;;;;;;;;21.30;53.50;;;;;;5012675;28;1397;-70
2021/12/04 08:04:02;;;;;;;;;;;21.40;53.40;;;;;;5012964;28;1133;-69
2021/12/04 08:06:28;;;;;;;;;;;21.50;53.20;;;;;;5011852;28;1101;-70
2021/12/04 08:08:58;;;;;;;;;;;21.60;53.00;;;;;;5012878;28;1140;-70
2021/12/04 08:11:24;;;;;;;;;;;21.70;52.80;;;;;;5010679;28;1241;-70
2021/12/04 08:13:50;;;;;;;;;;;21.80;52.60;;;;;;5006662;28;1972;-69
2021/12/04 08:16:15;;;;;;;;;;;21.90;52.50;;;;;;4999458;28;1208;-70
2021/12/04 08:18:40;;;;;;;;;;;21.90;52.30;;;;;;5005730;28;1299;-69
2021/12/04 08:21:06;;;;;;;;;;;22.00;52.20;;;;;;5007339;28;1256;-70
2021/12/04 08:23:31;;;;;;;;;;;22.10;52.10;;;;;;5022669;28;1185;-70
2021/12/04 08:25:57;;;;;;;;;;;22.10;52.00;;;;;;5018950;28;1339;-69
2021/12/04 08:28:23;;;;;;;;;;;22.20;52.00;;;;;;5017713;28;1240;-70
2021/12/04 08:30:48;;;;;;;;;;;22.20;52.00;;;;;;5018701;28;1340;-70
2021/12/04 08:33:14;;;;;;;;;;;22.30;52.20;;;;;;4998989;28;1899;-70
2021/12/04 08:35:39;;;;;;;;;;;22.40;52.20;;;;;;5004167;28;1379;-70
2021/12/04 08:38:08;;;;;;;;;;;22.40;52.20;;;;;;5002655;28;1340;-70
2021/12/04 08:40:33;;;;;;;;;;;22.50;52.30;;;;;;5008880;28;1427;-71
2021/12/04 08:42:59;;;;;;;;;;;22.50;52.20;;;;;;5012677;28;1241;-71
2021/12/04 08:45:24;;;;;;;;;;;22.60;52.30;;;;;;5011394;28;1296;-70
2021/12/04 08:47:50;;;;;;;;;;;22.60;52.30;;;;;;5012672;28;1347;-71
2021/12/04 08:50:17;;;;;;;;;;;22.60;52.20;;;;;;5012399;28;1276;-71
2021/12/04 08:52:42;;;;;;;;;;;22.70;52.30;;;;;;5012141;28;1895;-72
2021/12/04 08:55:08;;;;;;;;;;;22.70;52.30;;;;;;5011276;28;1108;-71
2021/12/04 08:57:33;;;;;;;;;;;22.70;52.30;;;;;;5012989;28;1049;-72
2021/12/04 08:59:59;;;;;;;;;;;22.70;52.30;;;;;;5015966;28;1290;-70
2021/12/04 09:02:24;;;;;;;;;;;22.80;52.30;;;;;;5015561;28;1328;-71
2021/12/04 09:04:50;;;;;;;;;;;22.80;52.40;;;;;;5015857;28;930;-72
2021/12/04 09:07:16;;;;;;;;;;;22.80;52.40;;;;;;5015890;28;1320;-70
2021/12/04 09:09:42;;;;;;;;;;;22.80;52.40;;;;;;5015789;28;1394;-71
2021/12/04 09:12:08;;;;;;;;;;;22.80;52.50;;;;;;5015129;28;1890;-70
2021/12/04 09:14:34;;;;;;;;;;;22.90;52.50;;;;;;5015682;28;1347;-70
2021/12/04 09:17:00;;;;;;;;;;;22.90;52.60;;;;;;5015753;28;1328;-70
2021/12/04 09:19:25;;;;;;;;;;;22.90;52.60;;;;;;5015636;28;1272;-72
2021/12/04 09:21:51;;;;;;;;;;;22.90;52.60;;;;;;5015260;28;1407;-71
2021/12/04 09:24:24;;;;;;;;;;;22.90;52.80;;;;;;5014320;28;1369;-71
2021/12/04 09:27:06;;;;;;;;;;;22.90;52.80;;;;;;5015622;28;1068;-71
2021/12/04 09:29:47;;;;;;;;;;;22.90;52.90;;;;;;5015258;28;1347;-71
2021/12/04 10:18:45;;;;;;;;;;;22.70;54.30;;;;;;5014618;28;1386;-69
2021/12/04 10:21:31;;;;;;;;;;;22.60;54.40;;;;;;5014282;28;1454;-71
2021/12/04 10:32:24;;;;;;;;;;;22.60;55.00;;;;;;5003931;28;1180;-71
2021/12/04 10:32:37;;;;;;;;;;;22.60;55.10;;;;;;5012877;28;1898;-70
2021/12/04 10:35:22;;;;;;;;;;;22.50;55.20;;;;;;5014290;28;1398;-70
2021/12/04 10:37:52;;;;;;;;;;;22.50;55.40;;;;;;5013878;28;1237;-70
2021/12/04 10:40:18;;;;;;;;;;;22.50;55.40;;;;;;5012976;28;1277;-70
2021/12/04 10:42:52;;;;;;;;;;;22.50;55.40;;;;;;5013571;28;1072;-70
2021/12/04 10:45:17;;;;;;;;;;;22.50;55.40;;;;;;5012858;28;1450;-70
2021/12/04 10:48:11;;;;;;;;;;;22.40;55.40;;;;;;5013975;28;1037;-70
2021/12/04 10:53:06;;;;;;;;;;;22.40;55.60;;;;;;5013571;28;1906;-69
2021/12/04 11:00:52;;;;;;;;;;;22.40;55.70;;;;;;5013650;28;1396;-70
2021/12/04 11:03:24;;;;;;;;;;;22.40;55.70;;;;;;5013684;28;1203;-70
2021/12/04 11:06:29;;;;;;;;;;;22.30;55.60;;;;;;5000538;28;1128;-70
2021/12/04 11:20:23;;;;;;;;;;;22.50;55.60;;;;;;5012712;28;1466;-70
2021/12/04 11:25:36;;;;;;;;;;;22.50;55.60;;;;;;5013595;28;1025;-70
2021/12/04 11:36:23;;;;;;;;;;;22.60;55.50;;;;;;4999956;28;1278;-70
2021/12/04 11:39:10;;;;;;;;;;;22.60;55.60;;;;;;5013308;28;1064;-70
2021/12/04 11:44:08;;;;;;;;;;;22.60;55.70;;;;;;5013008;28;1096;-72
2021/12/04 11:46:42;;;;;;;;;;;22.60;55.70;;;;;;5000880;28;1413;-71
2021/12/04 11:49:11;;;;;;;;;;;22.60;55.70;;;;;;5011366;28;1069;-71
2021/12/04 11:51:43;;;;;;;;;;;22.60;56.00;;;;;;5000424;28;1234;-70
2021/12/04 11:54:10;;;;;;;;;;;22.60;55.90;;;;;;5011685;28;1902;-70
2021/12/04 11:56:35;;;;;;;;;;;22.60;55.90;;;;;;5002359;28;1144;-71
2021/12/04 11:59:00;;;;;;;;;;;22.50;55.90;;;;;;5009718;28;1164;-70
2021/12/04 12:01:31;;;;;;;;;;;22.50;55.90;;;;;;5002772;28;1226;-71
2021/12/04 12:03:58;;;;;;;;;;;22.50;55.90;;;;;;5006944;28;1214;-71
2021/12/04 12:06:43;;;;;;;;;;;22.50;55.90;;;;;;5002814;28;1085;-70
2021/12/04 12:09:14;;;;;;;;;;;22.50;56.20;;;;;;4998554;28;1108;-73
2021/12/04 12:11:50;;;;;;;;;;;22.50;56.20;;;;;;5012869;28;1351;-71
2021/12/04 12:14:16;;;;;;;;;;;22.50;56.10;;;;;;5011359;28;1898;-71
2021/12/04 12:16:46;;;;;;;;;;;22.50;56.20;;;;;;5012873;28;1320;-71
2021/12/04 12:19:22;;;;;;;;;;;22.50;56.20;;;;;;5011715;28;1097;-71
2021/12/04 12:21:54;;;;;;;;;;;22.50;56.20;;;;;;5009945;28;1202;-71
2021/12/04 12:24:44;;;;;;;;;;;22.40;56.20;;;;;;5003850;28;1336;-71
2021/12/04 12:32:58;;;;;;;;;;;22.40;56.40;;;;;;5030369;23;2918;-70
2021/12/04 12:37:49;;;;;;;;;;;22.40;56.50;;;;;;5012646;28;2240;-70
2021/12/04 12:40:16;;;;;;;;;;;22.40;56.60;;;;;;5024075;28;1608;-71
2021/12/04 12:42:42;;;;;;;;;;;22.40;56.60;;;;;;5014528;28;1577;-70
2021/12/04 12:45:17;;;;;;;;;;;22.40;56.60;;;;;;5023760;28;1263;-72
2021/12/04 12:48:13;;;;;;;;;;;22.40;56.80;;;;;;5016453;28;1672;-72
2021/12/04 12:50:40;;;;;;;;;;;22.40;56.80;;;;;;5007587;28;1439;-72
2021/12/04 12:53:05;;;;;;;;;;;22.40;56.80;;;;;;5014837;28;1894;-71
2021/12/04 12:55:32;;;;;;;;;;;22.40;56.70;;;;;;5016117;28;1523;-71
2021/12/04 12:57:58;;;;;;;;;;;22.40;56.60;;;;;;5015143;28;1384;-71
2021/12/04 13:14:22;;;;;;;;;;;22.40;49.10;;;;;;5016621;28;1943;-71
2021/12/04 13:16:50;;;;;;;;;;;22.30;48.20;;;;;;5014079;28;1217;-71
2021/12/04 13:19:18;;;;;;;;;;;22.20;47.10;;;;;;5015667;28;1206;-71
2021/12/04 13:21:45;;;;;;;;;;;22.20;47.20;;;;;;5014063;28;1385;-71
2021/12/04 13:24:11;;;;;;;;;;;22.20;46.60;;;;;;5015339;28;1072;-71
2021/12/04 13:26:38;;;;;;;;;;;22.10;46.70;;;;;;5014350;28;1330;-71
2021/12/04 13:29:04;;;;;;;;;;;22.10;45.80;;;;;;5012806;28;1314;-71
2021/12/04 13:31:29;;;;;;;;;;;22.10;45.80;;;;;;5014980;28;1933;-71
2021/12/04 13:33:54;;;;;;;;;;;22.00;45.00;;;;;;5013863;28;1977;-71
2021/12/04 13:36:21;;;;;;;;;;;22.00;45.00;;;;;;5015752;28;1586;-71
2021/12/04 13:38:50;;;;;;;;;;;21.90;44.80;;;;;;5012340;28;1798;-72
2021/12/04 13:41:15;;;;;;;;;;;21.90;44.90;;;;;;5014369;28;1310;-71
2021/12/04 13:43:41;;;;;;;;;;;21.80;44.90;;;;;;5011613;28;1143;-72
2021/12/04 13:46:06;;;;;;;;;;;21.80;44.90;;;;;;5013932;28;1279;-71
2021/12/04 13:48:32;;;;;;;;;;;21.80;45.10;;;;;;5013716;28;1301;-72
2021/12/04 13:50:59;;;;;;;;;;;21.70;44.90;;;;;;5013259;28;1211;-72
2021/12/04 13:53:44;;;;;;;;;;;21.70;45.00;;;;;;5013400;28;1895;-72
2021/12/04 13:56:13;;;;;;;;;;;21.70;44.80;;;;;;5010353;28;1128;-72
2021/12/04 13:58:49;;;;;;;;;;;21.60;44.60;;;;;;5021924;28;1305;-72
2021/12/04 14:01:14;;;;;;;;;;;21.60;44.50;;;;;;5032823;28;1391;-71
2021/12/04 14:03:40;;;;;;;;;;;21.60;44.60;;;;;;5033310;28;1288;-72
2021/12/04 14:06:10;;;;;;;;;;;21.60;44.50;;;;;;5032927;28;1069;-71
2021/12/04 14:08:35;;;;;;;;;;;21.50;44.30;;;;;;5016826;28;1385;-71
2021/12/04 14:11:01;;;;;;;;;;;21.50;44.30;;;;;;5032886;28;1399;-72
2021/12/04 14:13:26;;;;;;;;;;;21.50;44.30;;;;;;5032805;28;1961;-72
2021/12/04 14:15:55;;;;;;;;;;;21.50;44.30;;;;;;5034246;28;1107;-71
2021/12/04 14:18:22;;;;;;;;;;;21.40;44.10;;;;;;5033788;28;1351;-72
2021/12/04 14:20:51;;;;;;;;;;;21.40;43.80;;;;;;5026437;28;1331;-71
2021/12/04 14:23:17;;;;;;;;;;;21.40;44.10;;;;;;5012633;28;1287;-71
2021/12/04 14:25:43;;;;;;;;;;;21.40;43.80;;;;;;5013944;28;1268;-72
2021/12/04 14:28:09;;;;;;;;;;;21.40;43.90;;;;;;5030562;28;1318;-72
2021/12/04 14:30:36;;;;;;;;;;;21.30;43.80;;;;;;5031493;28;2044;-70
2021/12/04 14:33:05;;;;;;;;;;;21.30;43.70;;;;;;5009844;28;2034;-70
2021/12/04 14:35:31;;;;;;;;;;;21.30;43.70;;;;;;5026539;28;2103;-70
2021/12/04 14:37:57;;;;;;;;;;;21.30;43.70;;;;;;5012938;28;1419;-70
2021/12/04 14:40:33;;;;;;;;;;;21.30;43.70;;;;;;5012561;28;1314;-70
2021/12/04 14:42:59;;;;;;;;;;;21.20;43.80;;;;;;5010591;28;1918;-70
2021/12/04 14:45:25;;;;;;;;;;;21.20;43.60;;;;;;4996507;28;1512;-70
2021/12/04 14:47:53;;;;;;;;;;;21.20;43.50;;;;;;5015007;28;1309;-69
2021/12/04 14:50:19;;;;;;;;;;;21.20;43.30;;;;;;5010006;28;1396;-69
2021/12/04 14:52:48;;;;;;;;;;;21.20;43.10;;;;;;5008203;28;1907;-70
2021/12/04 14:55:16;;;;;;;;;;;21.20;43.50;;;;;;5010724;28;1963;-69
2021/12/04 14:57:41;;;;;;;;;;;21.20;43.60;;;;;;5019315;28;1601;-69
2021/12/04 15:00:08;;;;;;;;;;;21.20;43.90;;;;;;5014859;28;1303;-69
2021/12/04 15:02:33;;;;;;;;;;;21.20;44.10;;;;;;5012143;28;1471;-68
2021/12/04 15:04:59;;;;;;;;;;;21.20;44.30;;;;;;5011312;28;1551;-69
2021/12/04 15:07:25;;;;;;;;;;;21.20;44.50;;;;;;5012109;28;1944;-71
2021/12/04 15:09:51;;;;;;;;;;;21.20;44.70;;;;;;5013197;28;1549;-71
2021/12/04 15:12:26;;;;;;;;;;;21.20;44.80;;;;;;5013355;28;1209;-70
2021/12/04 15:14:56;;;;;;;;;;;21.20;45.00;;;;;;5013862;28;1283;-71
2021/12/04 15:17:21;;;;;;;;;;;21.20;45.80;;;;;;5010093;28;1314;-72
2021/12/04 15:19:48;;;;;;;;;;;21.20;45.30;;;;;;5017552;28;1194;-71
2021/12/04 15:22:36;;;;;;;;;;;21.20;45.50;;;;;;5011939;28;1271;-71
2021/12/04 15:25:05;;;;;;;;;;;21.20;45.70;;;;;;5012146;28;1313;-71
2021/12/04 15:27:30;;;;;;;;;;;21.20;45.80;;;;;;5013660;28;1390;-71
2021/12/04 15:29:57;;;;;;;;;;;21.20;46.00;;;;;;5013692;28;1425;-73
2021/12/04 15:32:24;;;;;;;;;;;21.20;46.20;;;;;;5013059;28;1910;-72
2021/12/04 15:34:53;;;;;;;;;;;21.20;46.40;;;;;;5013408;28;1124;-72
2021/12/04 15:37:38;;;;;;;;;;;21.20;46.50;;;;;;5012499;28;1301;-72
2021/12/04 15:40:05;;;;;;;;;;;21.20;46.60;;;;;;5020525;28;1335;-72
2021/12/04 15:42:41;;;;;;;;;;;21.20;46.80;;;;;;4994842;28;1268;-72
2021/12/04 15:45:23;;;;;;;;;;;21.20;46.90;;;;;;5012287;28;1384;-72
2021/12/04 15:48:05;;;;;;;;;;;21.20;47.10;;;;;;5013107;28;1139;-72
2021/12/04 15:53:18;;;;;;;;;;;21.20;47.40;;;;;;5013228;28;1915;-70
2021/12/04 15:55:54;;;;;;;;;;;21.20;47.80;;;;;;5012182;28;1327;-71
2021/12/04 15:58:20;;;;;;;;;;;21.20;48.50;;;;;;5011849;28;1299;-71
2021/12/04 16:00:52;;;;;;;;;;;21.20;47.90;;;;;;5012945;28;1350;-72
2021/12/04 16:03:18;;;;;;;;;;;21.20;48.00;;;;;;5008373;28;2106;-70
2021/12/04 16:05:45;;;;;;;;;;;21.20;48.00;;;;;;5016857;28;1361;-70
2021/12/04 16:08:14;;;;;;;;;;;21.20;48.10;;;;;;5017290;28;1267;-70
2021/12/04 16:10:40;;;;;;;;;;;21.20;48.20;;;;;;5021191;28;1366;-69
2021/12/04 16:13:07;;;;;;;;;;;21.20;48.30;;;;;;5035207;28;1978;-70
2021/12/04 16:15:33;;;;;;;;;;;21.20;48.30;;;;;;5036764;28;1418;-70
2021/12/04 16:17:58;;;;;;;;;;;21.20;48.40;;;;;;5036881;28;1068;-69
2021/12/04 16:20:24;;;;;;;;;;;21.20;48.50;;;;;;5030788;28;1338;-70
2021/12/04 16:22:50;;;;;;;;;;;21.20;48.60;;;;;;5015356;28;1436;-70
2021/12/04 16:25:17;;;;;;;;;;;21.20;48.70;;;;;;5016707;28;1164;-70
2021/12/04 16:28:07;;;;;;;;;;;21.20;48.80;;;;;;5015403;28;1085;-70
2021/12/04 16:35:55;;;;;;;;;;;21.20;49.00;;;;;;5036343;28;1123;-71
2021/12/04 16:38:21;;;;;;;;;;;21.20;49.10;;;;;;5036914;28;1222;-70
2021/12/04 16:40:47;;;;;;;;;;;21.10;49.10;;;;;;5036064;28;1378;-70
2021/12/04 16:43:16;;;;;;;;;;;21.20;49.20;;;;;;5002460;28;1392;-72
2021/12/04 16:45:43;;;;;;;;;;;21.20;49.30;;;;;;5016276;28;1014;-72
2021/12/04 16:48:11;;;;;;;;;;;21.10;49.30;;;;;;5015369;28;1604;-71
2021/12/04 16:59:23;;;;;;;;;;;21.10;49.60;;;;;;5028251;28;1089;-70
2021/12/04 17:01:50;;;;;;;;;;;21.10;49.70;;;;;;5032713;28;1406;-71
2021/12/04 17:04:16;;;;;;;;;;;21.10;49.70;;;;;;5035543;28;1351;-71
2021/12/04 17:06:41;;;;;;;;;;;21.10;49.80;;;;;;5034550;28;1151;-71
2021/12/04 17:09:07;;;;;;;;;;;21.10;49.90;;;;;;5029476;28;1155;-70
2021/12/04 17:11:32;;;;;;;;;;;21.10;49.90;;;;;;5015650;28;1249;-69
2021/12/04 17:13:58;;;;;;;;;;;21.10;49.90;;;;;;5015771;28;1902;-69
2021/12/04 17:16:29;;;;;;;;;;;21.10;50.00;;;;;;5014765;28;1321;-69
2021/12/04 17:19:01;;;;;;;;;;;21.10;50.10;;;;;;5022857;28;1029;-68
2021/12/04 17:21:27;;;;;;;;;;;21.10;50.10;;;;;;5011553;28;1424;-69
2021/12/04 17:23:53;;;;;;;;;;;21.10;50.20;;;;;;5015510;28;1178;-69
2021/12/04 17:26:19;;;;;;;;;;;21.10;50.20;;;;;;5016055;28;1417;-69
2021/12/04 17:28:45;;;;;;;;;;;21.10;50.20;;;;;;5014540;28;1360;-69
2021/12/04 17:31:16;;;;;;;;;;;21.10;50.30;;;;;;5015096;28;1316;-69
2021/12/04 17:33:42;;;;;;;;;;;21.10;50.40;;;;;;5014508;28;1902;-69
2021/12/04 17:36:08;;;;;;;;;;;21.10;50.40;;;;;;5015272;28;1139;-69
2021/12/04 17:38:36;;;;;;;;;;;21.10;50.40;;;;;;5012261;28;1485;-74
2021/12/04 17:41:01;;;;;;;;;;;21.10;50.50;;;;;;5029679;28;1298;-69
2021/12/04 17:43:26;;;;;;;;;;;21.10;50.50;;;;;;5015383;28;1100;-73